Time;durP1;ratioP1;P1;durP2;ratioP2;P2;SDS_P1;SDS_P2;PMS_P1;PMS_P2;Temp;Humidity;BMP_temperature;BMP_pressure;BME280_temperature;BME280_humidity;BME280_pressure;Samples;Min_cycle;Max_cycle;Signal;HPM_P1;HPM_P2
2022/02/27 00:02:32;;;;;;;6.13;3.10;;;;;;;-146.05;100.00;59461.22;5058745;28;20117;-88
2022/02/27 00:05:20;;;;;;;6.63;2.80;;;;;;;-146.05;100.00;59461.22;5058907;28;20094;-87
2022/02/27 00:13:22;;;;;;;10.25;3.08;;;;;;;-146.05;100.00;59461.22;5057055;28;20112;-86
2022/02/27 00:16:19;;;;;;;6.50;3.13;;;;;;;-146.05;100.00;59461.22;5058036;28;20049;-86
2022/02/27 00:19:12;;;;;;;7.72;3.28;;;;;;;-146.05;100.00;59461.22;5057838;28;20057;-84
2022/02/27 00:22:16;;;;;;;8.20;3.17;;;;;;;-146.05;100.00;59461.22;5059185;28;20037;-87
2022/02/27 00:24:53;;;;;;;8.60;3.05;;;;;;;-146.05;100.00;59461.22;5063222;22;20053;-77
2022/02/27 00:27:20;;;;;;;5.30;2.72;;;;;;;-146.05;100.00;59461.22;5034283;28;20045;-77
2022/02/27 00:29:48;;;;;;;11.73;3.20;;;;;;;-146.05;100.00;59461.22;5034752;28;20056;-76
2022/02/27 00:32:19;;;;;;;8.57;2.90;;;;;;;-146.05;100.00;59461.22;5034792;28;20499;-76
2022/02/27 00:34:46;;;;;;;5.60;2.92;;;;;;;-146.05;100.00;59461.22;5034863;28;20041;-77
2022/02/27 00:37:14;;;;;;;9.82;3.38;;;;;;;-146.05;100.00;59461.22;5034712;28;20455;-77
2022/02/27 00:39:41;;;;;;;8.02;2.92;;;;;;;-146.05;100.00;59461.22;5034924;28;20109;-77
2022/02/27 00:42:09;;;;;;;8.85;3.75;;;;;;;-146.05;100.00;59461.22;5034632;28;20425;-77
2022/02/27 00:44:36;;;;;;;9.35;3.45;;;;;;;-146.05;100.00;59461.22;5034251;28;20061;-76
2022/02/27 00:47:05;;;;;;;12.18;4.35;;;;;;;-146.05;100.00;59461.22;5034492;28;20053;-76
2022/02/27 00:49:33;;;;;;;11.40;4.18;;;;;;;-146.05;100.00;59461.22;5034693;28;20427;-76
2022/02/27 00:52:01;;;;;;;6.80;3.55;;;;;;;-146.05;100.00;59461.22;5034499;28;20045;-77
2022/02/27 00:54:29;;;;;;;9.55;4.07;;;;;;;-146.05;100.00;59461.22;5034916;28;20056;-76
2022/02/27 00:56:57;;;;;;;8.23;4.07;;;;;;;-146.05;100.00;59461.22;5034128;28;20057;-77
2022/02/27 00:59:24;;;;;;;8.52;3.33;;;;;;;-146.05;100.00;59461.22;5034333;28;20499;-76
2022/02/27 01:01:52;;;;;;;7.05;3.88;;;;;;;-146.05;100.00;59461.22;5034342;28;20045;-76
2022/02/27 01:04:19;;;;;;;7.57;3.42;;;;;;;-146.05;100.00;59461.22;5034468;28;20050;-76
2022/02/27 01:06:48;;;;;;;7.35;3.00;;;;;;;-146.05;100.00;59461.22;5033761;28;20052;-77
2022/02/27 01:09:16;;;;;;;8.55;3.50;;;;;;;-146.05;100.00;59461.22;5034414;28;20053;-76
2022/02/27 01:11:43;;;;;;;5.30;3.10;;;;;;;-146.05;100.00;59461.22;5034006;28;20483;-77
2022/02/27 01:14:11;;;;;;;7.85;3.72;;;;;;;-146.05;100.00;59461.22;5034203;28;20046;-76
2022/02/27 01:16:38;;;;;;;9.90;4.15;;;;;;;-146.05;100.00;59461.22;5033550;28;20061;-77
2022/02/27 01:19:07;;;;;;;11.05;3.45;;;;;;;-146.05;100.00;59461.22;5033896;28;20052;-77
2022/02/27 01:21:35;;;;;;;6.65;3.30;;;;;;;-146.05;100.00;59461.22;5033948;28;20500;-77
2022/02/27 01:24:04;;;;;;;9.63;3.78;;;;;;;-146.05;100.00;59461.22;5033267;28;20053;-77
2022/02/27 01:26:32;;;;;;;14.27;6.30;;;;;;;-146.05;100.00;59461.22;5032632;28;20041;-76
2022/02/27 01:29:00;;;;;;;6.85;4.38;;;;;;;-146.05;100.00;59461.22;5032646;28;20049;-76
2022/02/27 01:31:28;;;;;;;10.88;4.55;;;;;;;-146.05;100.00;59461.22;5032409;28;20056;-77
2022/02/27 01:33:56;;;;;;;7.40;4.13;;;;;;;-146.05;100.00;59461.22;5032604;28;20072;-77
2022/02/27 01:36:23;;;;;;;9.57;3.80;;;;;;;-146.05;100.00;59461.22;5032428;28;20049;-76
2022/02/27 01:38:51;;;;;;;6.95;3.55;;;;;;;-146.05;100.00;59461.22;5032474;28;20060;-77
2022/02/27 01:41:19;;;;;;;9.50;3.45;;;;;;;-146.05;100.00;59461.22;5032250;28;20052;-76
2022/02/27 01:43:47;;;;;;;6.40;3.35;;;;;;;-146.05;100.00;59461.22;5032448;28;20046;-76
2022/02/27 01:46:15;;;;;;;7.45;3.30;;;;;;;-146.05;100.00;59461.22;5032241;28;20053;-77
2022/02/27 01:48:43;;;;;;;11.77;3.33;;;;;;;-146.05;100.00;59461.22;5032381;28;20049;-76
2022/02/27 01:51:11;;;;;;;10.38;3.38;;;;;;;-146.05;100.00;59461.22;5032149;28;20048;-76
2022/02/27 01:53:40;;;;;;;8.00;3.63;;;;;;;-146.05;100.00;59461.22;5032605;28;20516;-77
2022/02/27 01:56:08;;;;;;;5.30;3.03;;;;;;;-146.05;100.00;59461.22;5032094;28;20133;-76
2022/02/27 01:58:37;;;;;;;11.98;3.88;;;;;;;-146.05;100.00;59461.22;5032152;28;20064;-77
2022/02/27 02:01:04;;;;;;;9.55;3.58;;;;;;;-146.05;100.00;59461.22;5032384;28;20053;-77
2022/02/27 02:03:32;;;;;;;10.10;3.95;;;;;;;-146.05;100.00;59461.22;5032049;28;20099;-77
2022/02/27 02:06:00;;;;;;;8.02;3.78;;;;;;;-146.05;100.00;59461.22;5032140;28;20053;-76
2022/02/27 02:08:27;;;;;;;10.13;3.70;;;;;;;-146.05;100.00;59461.22;5034384;28;20061;-76
2022/02/27 02:10:55;;;;;;;7.63;3.60;;;;;;;-146.05;100.00;59461.22;5033241;28;20053;-77
2022/02/27 02:13:22;;;;;;;11.85;5.03;;;;;;;-146.05;100.00;59461.22;5032657;28;20046;-76
2022/02/27 02:15:58;;;;;;;6.65;4.53;;;;;;;-146.05;100.00;59461.22;5031739;28;20507;-76
2022/02/27 02:18:26;;;;;;;9.77;4.43;;;;;;;-146.05;100.00;59461.22;5032100;28;20509;-77
2022/02/27 02:20:55;;;;;;;13.00;4.93;;;;;;;-146.05;100.00;59461.22;5032407;28;20049;-76
2022/02/27 02:23:22;;;;;;;14.30;4.95;;;;;;;-146.05;100.00;59461.22;5032306;28;20057;-77
2022/02/27 02:25:50;;;;;;;11.10;4.32;;;;;;;-146.05;100.00;59461.22;4995814;28;1059398;-76
2022/02/27 02:28:17;;;;;;;10.10;5.78;;;;;;;-146.05;100.00;59461.22;5032953;28;20243;-76
2022/02/27 02:30:45;;;;;;;12.23;4.70;;;;;;;-146.05;100.00;59461.22;5032805;28;20045;-76
2022/02/27 02:33:12;;;;;;;13.38;5.25;;;;;;;-146.05;100.00;59461.22;5033024;28;20049;-76
2022/02/27 02:35:41;;;;;;;8.98;4.97;;;;;;;-146.05;100.00;59461.22;5033328;28;20046;-76
2022/02/27 02:38:10;;;;;;;11.82;5.72;;;;;;;-146.05;100.00;59461.22;5048687;28;20057;-77
2022/02/27 02:40:37;;;;;;;10.93;5.25;;;;;;;-146.05;100.00;59461.22;5054174;28;20063;-76
2022/02/27 02:43:05;;;;;;;8.55;4.45;;;;;;;-146.05;100.00;59461.22;5036348;28;20052;-77
2022/02/27 02:45:32;;;;;;;8.45;4.85;;;;;;;-146.05;100.00;59461.22;5033094;28;20141;-76
2022/02/27 02:48:00;;;;;;;10.75;4.90;;;;;;;-146.05;100.00;59461.22;5046567;28;20055;-78
2022/02/27 02:50:27;;;;;;;13.95;5.38;;;;;;;-146.05;100.00;59461.22;5052086;28;20053;-77
2022/02/27 02:52:57;;;;;;;8.90;5.50;;;;;;;-146.05;100.00;59461.22;5032385;28;20062;-77
2022/02/27 02:55:26;;;;;;;8.82;4.45;;;;;;;-146.05;100.00;59461.22;5032505;28;20052;-76
2022/02/27 02:57:54;;;;;;;10.93;4.88;;;;;;;-146.05;100.00;59461.22;5032374;28;20056;-76
2022/02/27 03:00:21;;;;;;;10.00;5.28;;;;;;;-146.05;100.00;59461.22;5032785;28;20046;-76
2022/02/27 03:02:49;;;;;;;10.50;4.93;;;;;;;-146.05;100.00;59461.22;5032673;28;20530;-76
2022/02/27 03:05:18;;;;;;;11.85;5.00;;;;;;;-146.05;100.00;59461.22;5032500;28;20077;-77
2022/02/27 03:07:45;;;;;;;9.15;4.78;;;;;;;-146.05;100.00;59461.22;5032443;28;20056;-76
2022/02/27 03:10:13;;;;;;;8.48;4.85;;;;;;;-146.05;100.00;59461.22;5032360;28;20049;-76
2022/02/27 03:12:42;;;;;;;11.30;5.25;;;;;;;-146.05;100.00;59461.22;5032294;28;20455;-77
2022/02/27 03:15:10;;;;;;;13.98;5.28;;;;;;;-146.05;100.00;59461.22;5032418;28;20449;-77
2022/02/27 03:17:37;;;;;;;7.32;4.65;;;;;;;-146.05;100.00;59461.22;5032154;28;20045;-76
2022/02/27 03:20:07;;;;;;;9.85;5.20;;;;;;;-146.05;100.00;59461.22;5032439;28;20053;-77
2022/02/27 03:22:34;;;;;;;9.55;4.85;;;;;;;-146.05;100.00;59461.22;5032302;28;20057;-78
2022/02/27 03:25:02;;;;;;;8.88;4.60;;;;;;;-146.05;100.00;59461.22;5032558;28;20049;-76
2022/02/27 03:27:29;;;;;;;9.20;5.05;;;;;;;-146.05;100.00;59461.22;5032109;28;20508;-77
2022/02/27 03:29:58;;;;;;;7.80;5.13;;;;;;;-146.05;100.00;59461.22;5032134;28;20060;-77
2022/02/27 03:32:26;;;;;;;7.07;4.55;;;;;;;-146.05;100.00;59461.22;5032686;28;20099;-76
2022/02/27 03:34:53;;;;;;;10.73;4.85;;;;;;;-146.05;100.00;59461.22;5032196;28;20499;-76
2022/02/27 03:37:21;;;;;;;15.15;6.43;;;;;;;-146.05;100.00;59461.22;5031788;28;20045;-77
2022/02/27 03:39:48;;;;;;;10.15;4.65;;;;;;;-146.05;100.00;59461.22;5032245;28;20057;-77
2022/02/27 03:42:16;;;;;;;9.18;5.18;;;;;;;-146.05;100.00;59461.22;5032068;28;20060;-76
2022/02/27 03:44:44;;;;;;;15.48;6.05;;;;;;;-146.05;100.00;59461.22;5032044;28;20045;-76
2022/02/27 03:47:15;;;;;;;12.82;4.90;;;;;;;-146.05;100.00;59461.22;5031816;28;20088;-76
2022/02/27 03:49:42;;;;;;;7.40;4.13;;;;;;;-146.05;100.00;59461.22;5031817;28;20049;-76
2022/02/27 03:52:10;;;;;;;10.85;4.72;;;;;;;-146.05;100.00;59461.22;5032796;28;20526;-76
2022/02/27 03:54:38;;;;;;;9.52;5.32;;;;;;;-146.05;100.00;59461.22;5033317;28;20049;-76
2022/02/27 03:57:05;;;;;;;9.02;4.57;;;;;;;-146.05;100.00;59461.22;5032300;28;20058;-77
2022/02/27 03:59:33;;;;;;;9.63;4.47;;;;;;;-146.05;100.00;59461.22;5031909;28;20056;-76
2022/02/27 04:02:00;;;;;;;7.10;4.35;;;;;;;-146.05;100.00;59461.22;5031874;28;20061;-76
2022/02/27 04:04:30;;;;;;;9.70;4.50;;;;;;;-146.05;100.00;59461.22;5032052;28;20104;-76
2022/02/27 04:06:57;;;;;;;9.82;4.45;;;;;;;-146.05;100.00;59461.22;5035063;28;20470;-76
2022/02/27 04:09:24;;;;;;;9.90;4.88;;;;;;;-146.05;100.00;59461.22;5035345;28;20057;-76
2022/02/27 04:11:52;;;;;;;10.75;4.90;;;;;;;-146.05;100.00;59461.22;5035349;28;20052;-77
2022/02/27 04:14:21;;;;;;;7.30;4.65;;;;;;;-146.05;100.00;59461.22;5035067;28;20088;-76
2022/02/27 04:16:49;;;;;;;9.13;3.97;;;;;;;-146.05;100.00;59461.22;5035078;28;20065;-77
2022/02/27 04:19:16;;;;;;;8.68;4.45;;;;;;;-146.05;100.00;59461.22;5035330;28;20060;-77
2022/02/27 04:21:45;;;;;;;9.13;4.28;;;;;;;-146.05;100.00;59461.22;5035455;28;20049;-77
2022/02/27 04:24:13;;;;;;;9.38;5.00;;;;;;;-146.05;100.00;59461.22;5034812;28;20530;-77
2022/02/27 04:26:40;;;;;;;11.60;5.05;;;;;;;-146.05;100.00;59461.22;5034785;28;20057;-77
2022/02/27 04:29:08;;;;;;;7.55;4.47;;;;;;;-146.05;100.00;59461.22;5034993;28;20049;-77
2022/02/27 04:31:36;;;;;;;7.22;5.03;;;;;;;-146.05;100.00;59461.22;5034865;28;20054;-76
2022/02/27 04:34:04;;;;;;;7.32;4.30;;;;;;;-146.05;100.00;59461.22;5034761;28;20480;-76
2022/02/27 04:36:31;;;;;;;11.38;6.55;;;;;;;-146.05;100.00;59461.22;5034746;28;20053;-76
2022/02/27 04:39:00;;;;;;;10.98;7.63;;;;;;;-146.05;100.00;59461.22;5035111;28;20499;-76
2022/02/27 04:41:29;;;;;;;13.38;9.13;;;;;;;-146.05;100.00;59461.22;5035432;28;20053;-76
2022/02/27 04:43:57;;;;;;;14.85;8.82;;;;;;;-146.05;100.00;59461.22;5034732;28;20495;-77
2022/02/27 04:46:24;;;;;;;14.40;9.05;;;;;;;-146.05;100.00;59461.22;5034528;28;20053;-76
2022/02/27 04:48:52;;;;;;;9.10;6.15;;;;;;;-146.05;100.00;59461.22;5034781;28;20081;-76
2022/02/27 04:51:20;;;;;;;13.75;6.95;;;;;;;-146.05;100.00;59461.22;5034591;28;20065;-77
2022/02/27 04:53:49;;;;;;;17.35;8.63;;;;;;;-146.05;100.00;59461.22;5034582;28;20056;-76
2022/02/27 04:56:18;;;;;;;37.90;16.83;;;;;;;-146.05;100.00;59461.22;5034526;28;20057;-76
2022/02/27 04:58:45;;;;;;;34.53;16.40;;;;;;;-146.05;100.00;59461.22;5034332;28;20049;-79
2022/02/27 05:01:13;;;;;;;29.83;13.85;;;;;;;-146.05;100.00;59461.22;5035554;28;20053;-77
2022/02/27 05:03:41;;;;;;;23.38;11.77;;;;;;;-146.05;100.00;59461.22;5034487;28;20057;-77
2022/02/27 05:06:08;;;;;;;23.67;10.35;;;;;;;-146.05;100.00;59461.22;5034637;28;20538;-79
2022/02/27 05:08:37;;;;;;;23.02;11.00;;;;;;;-146.05;100.00;59461.22;5034441;28;20100;-77
2022/02/27 05:11:05;;;;;;;12.93;7.70;;;;;;;-146.05;100.00;59461.22;5034259;28;20049;-77
2022/02/27 05:13:34;;;;;;;16.42;6.50;;;;;;;-146.05;100.00;59461.22;5036050;28;20064;-78
2022/02/27 05:16:02;;;;;;;10.80;7.03;;;;;;;-146.05;100.00;59461.22;5035700;28;20061;-77
2022/02/27 05:18:29;;;;;;;14.23;6.72;;;;;;;-146.05;100.00;59461.22;5035022;28;20103;-77
2022/02/27 05:20:57;;;;;;;10.00;5.65;;;;;;;-146.05;100.00;59461.22;5034682;28;20049;-77
2022/02/27 05:23:24;;;;;;;10.02;5.93;;;;;;;-146.05;100.00;59461.22;5034708;28;20052;-77
2022/02/27 05:25:57;;;;;;;11.48;5.65;;;;;;;-146.05;100.00;59461.22;5038153;28;20045;-76
2022/02/27 05:28:25;;;;;;;9.32;4.75;;;;;;;-146.05;100.00;59461.22;5056382;28;20041;-77
2022/02/27 05:30:55;;;;;;;9.88;5.60;;;;;;;-146.05;100.00;59461.22;5049860;28;20049;-77
2022/02/27 05:33:23;;;;;;;10.02;4.93;;;;;;;-146.05;100.00;59461.22;5034726;28;20068;-77
2022/02/27 05:35:50;;;;;;;11.98;5.55;;;;;;;-146.05;100.00;59461.22;5034212;28;20057;-77
2022/02/27 05:38:18;;;;;;;10.30;5.43;;;;;;;-146.05;100.00;59461.22;5034536;28;20415;-77
2022/02/27 05:40:47;;;;;;;11.35;5.07;;;;;;;-146.05;100.00;59461.22;5040216;28;20080;-77
2022/02/27 05:43:14;;;;;;;6.47;4.65;;;;;;;-146.05;100.00;59461.22;5034968;28;20067;-77
2022/02/27 05:45:42;;;;;;;8.95;5.03;;;;;;;-146.05;100.00;59461.22;5033669;28;20049;-77
2022/02/27 05:48:11;;;;;;;7.88;4.68;;;;;;;-146.05;100.00;59461.22;5033907;28;20053;-77
2022/02/27 05:50:38;;;;;;;12.18;5.72;;;;;;;-146.05;100.00;59461.22;5034013;28;20045;-77
2022/02/27 05:53:06;;;;;;;8.90;5.53;;;;;;;-146.05;100.00;59461.22;5034651;28;20072;-77
2022/02/27 05:55:34;;;;;;;18.90;7.10;;;;;;;-146.05;100.00;59461.22;5033498;28;20061;-77
2022/02/27 05:58:02;;;;;;;15.73;8.68;;;;;;;-146.05;100.00;59461.22;5033316;28;20053;-77
2022/02/27 06:00:30;;;;;;;14.70;6.40;;;;;;;-146.05;100.00;59461.22;5033630;28;20053;-77
2022/02/27 06:02:57;;;;;;;15.63;6.53;;;;;;;-146.05;100.00;59461.22;5033423;28;20123;-77
2022/02/27 06:05:26;;;;;;;11.02;6.03;;;;;;;-146.05;100.00;59461.22;5032992;28;20079;-77
2022/02/27 06:07:55;;;;;;;14.98;7.72;;;;;;;-146.05;100.00;59461.22;5033012;28;20132;-77
2022/02/27 06:10:23;;;;;;;15.77;7.53;;;;;;;-146.05;100.00;59461.22;5032924;28;20541;-77
2022/02/27 06:12:51;;;;;;;12.77;6.93;;;;;;;-146.05;100.00;59461.22;5033267;28;20057;-77
2022/02/27 06:15:19;;;;;;;11.73;6.28;;;;;;;-146.05;100.00;59461.22;5033774;28;20049;-77
2022/02/27 06:17:47;;;;;;;13.40;6.93;;;;;;;-146.05;100.00;59461.22;5032908;28;20049;-77
2022/02/27 06:20:14;;;;;;;10.30;6.07;;;;;;;-146.05;100.00;59461.22;5033307;28;20060;-77
2022/02/27 06:22:45;;;;;;;8.70;5.75;;;;;;;-146.05;100.00;59461.22;5033245;28;20053;-76
2022/02/27 06:25:24;;;;;;;9.23;5.72;;;;;;;-146.05;100.00;59461.22;5164926;23;20029;-90
2022/02/27 06:28:00;;;;;;;11.10;5.88;;;;;;;-146.05;100.00;59461.22;5057034;28;20049;-87
2022/02/27 06:30:39;;;;;;;9.93;6.53;;;;;;;-146.05;100.00;59461.22;5057814;28;20038;-90
2022/02/27 06:33:11;;;;;;;15.68;7.15;;;;;;;-146.05;100.00;59461.22;5058033;28;20034;-88
2022/02/27 06:35:46;;;;;;;10.32;6.13;;;;;;;-146.05;100.00;59461.22;5072710;28;20033;-86
2022/02/27 06:38:34;;;;;;;13.63;6.60;;;;;;;-146.05;100.00;59461.22;5077437;28;20072;-86
2022/02/27 06:41:16;;;;;;;10.18;6.43;;;;;;;-146.05;100.00;59461.22;5077396;28;20112;-87
2022/02/27 07:32:57;;;;;;;9.88;6.15;;;;;;;-146.05;100.00;59461.22;5052039;28;20076;-83
2022/02/27 07:35:36;;;;;;;12.02;6.82;;;;;;;-146.05;100.00;59461.22;5066765;28;20055;-85
2022/02/27 07:38:12;;;;;;;12.80;6.43;;;;;;;-146.05;100.00;59461.22;5072836;28;20055;-83
2022/02/27 07:40:43;;;;;;;11.68;6.45;;;;;;;-146.05;100.00;59461.22;5075498;28;20053;-86
2022/02/27 09:52:56;;;;;;;6.20;3.72;;;;;;;-146.05;100.00;59461.22;5036807;28;20089;-86
2022/02/27 09:55:49;;;;;;;10.18;3.60;;;;;;;-146.05;100.00;59461.22;5037805;28;20397;-85
2022/02/27 09:58:36;;;;;;;5.85;3.60;;;;;;;-146.05;100.00;59461.22;5037095;28;20053;-83
2022/02/27 10:01:15;;;;;;;4.32;3.22;;;;;;;-146.05;100.00;59461.22;5037409;28;20068;-87
2022/02/27 10:14:44;;;;;;;8.77;3.80;;;;;;;-146.05;100.00;59461.22;5753571;23;20032;-88
2022/02/27 10:17:37;;;;;;;9.35;3.97;;;;;;;-146.05;100.00;59461.22;5057899;28;20037;-88
2022/02/27 10:20:37;;;;;;;6.18;4.07;;;;;;;-146.05;100.00;59461.22;5058149;28;20046;-86
2022/02/27 10:26:09;;;;;;;4.90;3.65;;;;;;;-146.05;100.00;59461.22;5110985;23;20053;-89
2022/02/27 10:29:03;;;;;;;11.30;4.47;;;;;;;-146.05;100.00;59461.22;5057671;28;20097;-87
2022/02/27 10:31:42;;;;;;;7.90;3.88;;;;;;;-146.05;100.00;59461.22;5057627;28;20040;-88
2022/02/27 10:34:23;;;;;;;5.57;3.47;;;;;;;-146.05;100.00;59461.22;5057181;28;20033;-85
2022/02/27 10:37:16;;;;;;;5.90;3.63;;;;;;;-146.05;100.00;59461.22;5057437;28;20040;-88
2022/02/27 10:40:02;;;;;;;4.85;4.05;;;;;;;-146.05;100.00;59461.22;5058153;28;20102;-88
2022/02/27 10:42:52;;;;;;;6.10;3.78;;;;;;;-146.05;100.00;59461.22;5057744;28;20051;-88
2022/02/27 10:48:26;;;;;;;4.32;3.65;;;;;;;-146.05;100.00;59461.22;5053616;28;20049;-86
2022/02/27 10:51:17;;;;;;;4.03;2.65;;;;;;;-146.05;100.00;59461.22;5053913;28;20061;-87
2022/02/27 10:54:06;;;;;;;6.03;3.35;;;;;;;-146.05;100.00;59461.22;5057366;28;20046;-89
2022/02/27 10:56:47;;;;;;;5.78;3.38;;;;;;;-146.05;100.00;59461.22;5057413;28;20037;-89
2022/02/27 10:59:27;;;;;;;5.40;3.40;;;;;;;-146.05;100.00;59461.22;5057244;28;20033;-87
2022/02/27 11:02:01;;;;;;;4.43;3.50;;;;;;;-146.05;100.00;59461.22;5056718;28;20076;-89
2022/02/27 11:07:55;;;;;;;5.55;3.50;;;;;;;-146.05;100.00;59461.22;5055795;28;20057;-85
2022/02/27 11:10:40;;;;;;;5.72;3.25;;;;;;;-146.05;100.00;59461.22;5056726;28;20097;-87
2022/02/27 11:16:17;;;;;;;6.28;4.10;;;;;;;-146.05;100.00;59461.22;5059275;28;20044;-86
2022/02/27 11:19:05;;;;;;;10.38;4.25;;;;;;;-146.05;100.00;59461.22;5060594;28;20041;-85
2022/02/27 11:27:51;;;;;;;3.55;3.20;;;;;;;-146.05;100.00;59461.22;5059972;28;20033;-86
2022/02/27 11:33:37;;;;;;;9.93;4.03;;;;;;;-146.05;100.00;59461.22;5060214;28;20033;-89
2022/02/27 11:36:31;;;;;;;6.72;3.00;;;;;;;-146.05;100.00;59461.22;5060105;28;20033;-87
2022/02/27 11:44:57;;;;;;;5.13;3.42;;;;;;;-146.05;100.00;59461.22;5058887;28;20036;-88
2022/02/27 11:47:57;;;;;;;7.03;4.00;;;;;;;-146.05;100.00;59461.22;5061009;28;20182;-89
2022/02/27 11:50:40;;;;;;;11.05;5.72;;;;;;;-146.05;100.00;59461.22;5060998;28;20037;-87
2022/02/27 11:53:32;;;;;;;7.15;4.45;;;;;;;-146.05;100.00;59461.22;5061264;28;20105;-85
2022/02/27 11:56:07;;;;;;;14.45;7.82;;;;;;;-146.05;100.00;59461.22;5060757;28;20061;-90
2022/02/27 11:58:44;;;;;;;5.45;3.45;;;;;;;-146.05;100.00;59461.22;5060996;28;20041;-87
2022/02/27 12:01:25;;;;;;;33.78;16.95;;;;;;;-146.05;100.00;59461.22;5060701;28;20033;-87
2022/02/27 12:04:31;;;;;;;9.65;6.25;;;;;;;-146.05;100.00;59461.22;5060666;28;20059;-87
2022/02/27 12:07:17;;;;;;;7.40;3.78;;;;;;;-146.05;100.00;59461.22;5060478;28;20050;-89
2022/02/27 12:13:11;;;;;;;6.55;2.60;;;;;;;-146.05;100.00;59461.22;5060211;28;20045;-88
2022/02/27 12:16:07;;;;;;;3.53;2.50;;;;;;;-146.05;100.00;59461.22;5060187;28;20053;-87
2022/02/27 12:18:55;;;;;;;7.57;3.45;;;;;;;-146.05;100.00;59461.22;5060296;28;20029;-91
2022/02/27 12:22:04;;;;;;;4.43;2.92;;;;;;;-146.05;100.00;59461.22;5060501;28;20060;-87
2022/02/27 12:25:06;;;;;;;4.03;2.92;;;;;;;-146.05;100.00;59461.22;5059549;28;20045;-85
2022/02/27 12:27:56;;;;;;;4.03;2.97;;;;;;;-146.05;100.00;59461.22;5059615;28;20072;-86
2022/02/27 12:30:36;;;;;;;3.35;2.88;;;;;;;-146.05;100.00;59461.22;5059893;28;20068;-85
2022/02/27 12:47:54;;;;;;;3.33;2.65;;;;;;;-146.05;100.00;59461.22;5075885;23;20037;-93
2022/02/27 12:50:54;;;;;;;5.22;3.20;;;;;;;-146.05;100.00;59461.22;5059536;28;20068;-88
2022/02/27 12:53:48;;;;;;;;;;;;;;;;;;;;;
2022/02/27 12:56:34;;;;;;;3.20;2.63;;;;;;;-146.05;100.00;59461.22;5039303;28;20040;-90
2022/02/27 13:09:54;;;;;;;3.97;3.17;;;;;;;-146.05;100.00;59461.22;5869434;23;20033;-87
2022/02/27 13:12:33;;;;;;;5.22;3.20;;;;;;;-146.05;100.00;59461.22;5058428;28;20057;-87
2022/02/27 13:15:14;;;;;;;3.70;3.17;;;;;;;-146.05;100.00;59461.22;5058702;28;20070;-85
2022/02/27 13:17:52;;;;;;;4.10;2.72;;;;;;;-146.05;100.00;59461.22;5057864;28;20065;-86
2022/02/27 13:20:32;;;;;;;5.82;3.92;;;;;;;-146.05;100.00;59461.22;5058027;28;20052;-85
2022/02/27 13:23:11;;;;;;;4.72;3.08;;;;;;;-146.05;100.00;59461.22;5057643;28;20076;-89
2022/02/27 13:25:56;;;;;;;3.55;2.78;;;;;;;-146.05;100.00;59461.22;5057470;28;20037;-84
2022/02/27 13:28:39;;;;;;;3.35;2.97;;;;;;;-146.05;100.00;59461.22;5055825;28;20100;-85
2022/02/27 13:31:28;;;;;;;4.30;2.67;;;;;;;-146.05;100.00;59461.22;5055587;28;20052;-85
2022/02/27 13:34:16;;;;;;;4.55;2.47;;;;;;;-146.05;100.00;59461.22;5055433;28;20050;-85
2022/02/27 13:37:05;;;;;;;3.25;2.40;;;;;;;-146.05;100.00;59461.22;5054308;28;20032;-85
2022/02/27 13:39:48;;;;;;;5.10;3.45;;;;;;;-146.05;100.00;59461.22;5054996;28;20076;-84
2022/02/27 13:45:37;;;;;;;4.18;2.50;;;;;;;-146.05;100.00;59461.22;5058610;28;20037;-88
2022/02/27 13:51:38;;;;;;;7.60;2.75;;;;;;;-146.05;100.00;59461.22;5058722;28;20037;-89
2022/02/27 13:57:16;;;;;;;5.57;3.25;;;;;;;-146.05;100.00;59461.22;5056303;28;20097;-90
2022/02/27 13:59:57;;;;;;;2.75;2.33;;;;;;;-146.05;100.00;59461.22;5058283;28;20046;-87
2022/02/27 14:02:39;;;;;;;2.85;2.65;;;;;;;-146.05;100.00;59461.22;5058067;28;20040;-88
2022/02/27 14:05:29;;;;;;;4.00;2.50;;;;;;;-146.05;100.00;59461.22;5058001;28;20076;-85
2022/02/27 14:08:18;;;;;;;3.50;2.72;;;;;;;-146.05;100.00;59461.22;5057425;28;20049;-88
2022/02/27 14:10:53;;;;;;;5.40;3.42;;;;;;;-146.05;100.00;59461.22;5056965;28;20056;-86
2022/02/27 14:13:27;;;;;;;4.65;2.65;;;;;;;-146.05;100.00;59461.22;5056681;28;20037;-84
2022/02/27 14:16:04;;;;;;;4.03;2.88;;;;;;;-146.05;100.00;59461.22;5055687;28;20053;-86
2022/02/27 14:18:42;;;;;;;5.03;2.80;;;;;;;-146.05;100.00;59461.22;5056826;28;20060;-86
2022/02/27 14:21:31;;;;;;;5.97;3.33;;;;;;;-146.05;100.00;59461.22;5056653;28;20060;-86
2022/02/27 14:24:11;;;;;;;3.45;2.65;;;;;;;-146.05;100.00;59461.22;5056623;28;20041;-84
2022/02/27 14:27:05;;;;;;;4.10;2.90;;;;;;;-146.05;100.00;59461.22;5055979;28;20060;-84
2022/02/27 14:29:48;;;;;;;4.10;3.00;;;;;;;-146.05;100.00;59461.22;5056153;28;20045;-86
2022/02/27 14:32:34;;;;;;;16.13;8.70;;;;;;;-146.05;100.00;59461.22;5056262;28;20043;-83
2022/02/27 14:38:12;;;;;;;3.88;2.63;;;;;;;-146.05;100.00;59461.22;5057190;28;20057;-90
2022/02/27 14:40:51;;;;;;;6.22;3.30;;;;;;;-146.05;100.00;59461.22;5057628;28;20053;-90
2022/02/27 14:43:30;;;;;;;4.82;3.38;;;;;;;-146.05;100.00;59461.22;5057736;28;20049;-89
2022/02/27 14:46:12;;;;;;;3.38;2.83;;;;;;;-146.05;100.00;59461.22;5057267;28;20516;-88
2022/02/27 14:49:13;;;;;;;;;;;;;;;-146.05;100.00;59461.22;5055078;28;20052;-88
2022/02/27 14:54:45;;;;;;;7.30;3.03;;;;;;;-146.05;100.00;59461.22;5057746;28;20037;-89
2022/02/27 15:09:17;;;;;;;7.40;3.50;;;;;;;-146.05;100.00;59461.22;5056037;28;20029;-85
2022/02/27 15:12:11;;;;;;;5.32;4.22;;;;;;;-146.05;100.00;59461.22;5056314;28;20474;-87
2022/02/27 15:14:55;;;;;;;9.43;4.32;;;;;;;-146.05;100.00;59461.22;5056567;28;20049;-86
2022/02/27 15:17:50;;;;;;;7.45;4.25;;;;;;;-146.05;100.00;59461.22;5055697;28;20033;-87
2022/02/27 15:20:32;;;;;;;6.95;4.65;;;;;;;-146.05;100.00;59461.22;5055858;28;20037;-85
2022/02/27 15:23:13;;;;;;;8.05;4.78;;;;;;;-146.05;100.00;59461.22;5055939;28;20049;-87
2022/02/27 15:25:59;;;;;;;8.43;5.10;;;;;;;-146.05;100.00;59461.22;5055956;28;20043;-89
2022/02/27 15:28:40;;;;;;;8.30;5.22;;;;;;;-146.05;100.00;59461.22;5057103;28;20101;-89
2022/02/27 15:31:19;;;;;;;5.63;4.30;;;;;;;-146.05;100.00;59461.22;5057119;28;20101;-90
2022/02/27 15:33:56;;;;;;;10.18;4.75;;;;;;;-146.05;100.00;59461.22;5057415;28;20040;-89
2022/02/27 15:36:31;;;;;;;9.05;5.40;;;;;;;-146.05;100.00;59461.22;5056574;28;20073;-89
2022/02/27 15:39:12;;;;;;;7.57;5.25;;;;;;;-146.05;100.00;59461.22;5056817;28;20056;-86
2022/02/27 15:41:56;;;;;;;5.10;4.18;;;;;;;-146.05;100.00;59461.22;5056814;28;20094;-87
2022/02/27 15:44:41;;;;;;;6.83;4.03;;;;;;;-146.05;100.00;59461.22;5056178;28;20040;-84
2022/02/27 15:47:20;;;;;;;6.53;4.25;;;;;;;-146.05;100.00;59461.22;5055237;28;20040;-88
2022/02/27 17:35:41;;;;;;;5.63;4.57;;;;;;;-146.05;100.00;59461.22;5052941;28;20100;-84
2022/02/27 17:38:23;;;;;;;7.40;5.25;;;;;;;-146.05;100.00;59461.22;5058055;28;20037;-90
2022/02/27 17:41:08;;;;;;;4.80;4.30;;;;;;;-146.05;100.00;59461.22;5074235;28;20052;-89
2022/02/27 17:57:37;;;;;;;6.30;4.03;;;;;;;-146.05;100.00;59461.22;5055896;28;20104;-87
2022/02/27 18:00:29;;;;;;;6.68;4.40;;;;;;;-146.05;100.00;59461.22;5057941;28;20037;-86
2022/02/27 18:03:12;;;;;;;7.90;4.55;;;;;;;-146.05;100.00;59461.22;5057646;28;20489;-87
2022/02/27 18:05:45;;;;;;;5.40;3.90;;;;;;;-146.05;100.00;59461.22;5070294;23;20020;-77
2022/02/27 18:08:13;;;;;;;5.63;4.63;;;;;;;-146.05;100.00;59461.22;5013754;28;20050;-78
2022/02/27 18:10:41;;;;;;;7.30;4.40;;;;;;;-146.05;100.00;59461.22;5013725;28;20068;-77
2022/02/27 18:13:10;;;;;;;6.00;4.50;;;;;;;-146.05;100.00;59461.22;5013594;28;20046;-78
2022/02/27 18:15:38;;;;;;;6.10;4.20;;;;;;;-146.05;100.00;59461.22;5015596;28;20049;-77
2022/02/27 18:18:06;;;;;;;7.18;4.13;;;;;;;-146.05;100.00;59461.22;5033007;28;20080;-78
2022/02/27 18:20:33;;;;;;;6.20;4.38;;;;;;;-146.05;100.00;59461.22;5033215;28;20045;-77